Terminal Aerodrome Forecast
Issued by NWS Missoula, MT

Home | Current Version | Previous Version | Text Only | Print | Product List | Glossary On
Versions: 1 2 3 4 5 6 7 8 9 10 11 12 13 14 15 16 17 18 19 20
000
FTUS45 KMSO 191737
TAFGPI
TAF
KGPI 191737Z 1918/2018 17003KT 2SM -RASN BR SCT030 OVC040
     FM191830 18004KT 1SM RASN BR SCT008 OVC015
     FM192100 18004KT 2SM -RA BR SCT020 OVC030
     FM200000 18005KT 4SM BR VCSH BKN030=

USA.gov is the U.S. government's official web portal to all federal, state and local government web resources and services.